Time;durP1;ratioP1;P1;durP2;ratioP2;P2;SDS_P1;SDS_P2;PMS_P1;PMS_P2;Temp;Humidity;BMP_temperature;BMP_pressure;BME280_temperature;BME280_humidity;BME280_pressure;Samples;Min_cycle;Max_cycle;Signal;HPM_P1;HPM_P2
2021/10/09 00:00:37;;;;;;;20.40;14.93;;;;;;;5.96;100.00;97107.28;4972395;28;20493;-80
2021/10/09 00:03:03;;;;;;;23.87;13.87;;;;;;;6.03;100.00;97108.50;4959259;28;20230;-81
2021/10/09 00:05:28;;;;;;;22.90;14.03;;;;;;;6.03;100.00;97117.16;4944855;28;20062;-81
2021/10/09 00:07:55;;;;;;;23.10;14.83;;;;;;;5.95;100.00;97110.84;4973347;28;20073;-80
2021/10/09 00:10:32;;;;;;;216.67;114.30;;;;;;;5.99;100.00;97113.09;4933265;28;20039;-81
2021/10/09 00:13:07;;;;;;;31.10;21.17;;;;;;;5.99;100.00;97101.84;4946397;28;20039;-80
2021/10/09 00:15:33;;;;;;;22.97;13.67;;;;;;;5.93;100.00;97102.25;4945266;28;20049;-81
2021/10/09 00:18:00;;;;;;;22.07;13.73;;;;;;;5.95;100.00;97105.63;4972540;28;20058;-80
2021/10/09 00:20:30;;;;;;;25.63;14.73;;;;;;;5.93;100.00;97107.50;4951546;28;20073;-81
2021/10/09 00:22:57;;;;;;;20.30;14.80;;;;;;;5.83;100.00;97099.44;4950292;28;20548;-81
2021/10/09 00:25:24;;;;;;;20.13;13.57;;;;;;;5.81;100.00;97107.38;4961390;28;20035;-81
2021/10/09 00:27:50;;;;;;;19.00;13.37;;;;;;;5.84;100.00;97103.75;4941408;28;20046;-80
2021/10/09 00:30:17;;;;;;;21.83;13.27;;;;;;;5.82;100.00;97109.06;4968180;28;20019;-80
2021/10/09 00:32:43;;;;;;;26.97;15.23;;;;;;;5.76;100.00;97114.69;4936750;28;20046;-80
2021/10/09 00:35:09;;;;;;;19.87;13.83;;;;;;;5.81;100.00;97110.00;4951162;28;20034;-80
2021/10/09 00:37:44;;;;;;;22.93;13.10;;;;;;;5.71;100.00;97114.19;4976039;28;20110;-80
2021/10/09 00:40:11;;;;;;;25.37;14.10;;;;;;;5.64;100.00;97113.78;4952308;28;20130;-80
2021/10/09 00:42:36;;;;;;;20.43;13.37;;;;;;;5.66;100.00;97114.50;4958976;28;20043;-80
2021/10/09 00:45:06;;;;;;;20.77;13.13;;;;;;;5.63;100.00;97111.28;4954467;28;20038;-80
2021/10/09 00:47:33;;;;;;;26.20;14.97;;;;;;;5.64;100.00;97115.56;4971925;28;20037;-81
2021/10/09 00:49:58;;;;;;;20.90;13.73;;;;;;;5.68;100.00;97114.41;4940581;28;20034;-81
2021/10/09 00:52:25;;;;;;;21.60;13.37;;;;;;;5.76;100.00;97112.09;4960065;28;20429;-81
2021/10/09 00:54:54;;;;;;;24.77;14.47;;;;;;;5.72;100.00;97105.41;4939707;28;20090;-80
2021/10/09 00:57:25;;;;;;;22.70;13.83;;;;;;;5.66;100.00;97111.06;4948911;28;20074;-80
2021/10/09 00:59:51;;;;;;;23.97;15.40;;;;;;;5.63;100.00;97106.06;4958983;28;20052;-81
2021/10/09 01:02:17;;;;;;;21.70;13.60;;;;;;;5.59;100.00;97107.22;4955386;28;20023;-80
2021/10/09 01:04:46;;;;;;;21.33;13.17;;;;;;;5.63;100.00;97106.06;4947494;28;20043;-81
2021/10/09 01:07:13;;;;;;;19.00;12.67;;;;;;;5.60;100.00;97101.91;4943584;28;20062;-81
2021/10/09 01:09:48;;;;;;;23.30;13.17;;;;;;;5.62;100.00;97101.78;4937948;28;20528;-81
2021/10/09 01:12:15;;;;;;;20.70;14.17;;;;;;;5.64;100.00;97099.91;4946414;28;20058;-81
2021/10/09 01:14:42;;;;;;;24.20;13.83;;;;;;;5.65;100.00;97104.19;4956248;28;20058;-80
2021/10/09 01:17:11;;;;;;;19.07;13.63;;;;;;;5.64;100.00;97099.91;4955894;28;20030;-80
2021/10/09 01:19:36;;;;;;;20.30;13.33;;;;;;;5.67;100.00;97097.94;4951865;28;20690;-80
2021/10/09 01:22:09;;;;;;;21.10;13.40;;;;;;;5.65;100.00;97098.97;4959606;28;20031;-81
2021/10/09 01:24:38;;;;;;;24.40;13.93;;;;;;;5.64;100.00;97107.75;4940699;28;20489;-81
2021/10/09 01:27:26;;;;;;;16.80;12.57;;;;;;;5.59;100.00;97107.22;4945004;29;20070;-81
2021/10/09 01:29:59;;;;;;;25.10;12.83;;;;;;;5.62;100.00;97100.00;4963901;28;20034;-81
2021/10/09 01:32:33;;;;;;;22.17;13.13;;;;;;;5.66;100.00;97098.84;4945406;28;20045;-80
2021/10/09 01:35:06;;;;;;;24.47;14.60;;;;;;;5.59;100.00;97108.03;4937880;28;20702;-81
2021/10/09 01:37:41;;;;;;;;;;;;;;;5.60;100.00;97095.84;4962121;28;20034;-81
2021/10/09 01:40:18;;;;;;;18.17;12.13;;;;;;;5.59;100.00;97086.34;4941563;28;20017;-80
2021/10/09 01:42:48;;;;;;;19.47;13.40;;;;;;;5.52;100.00;97087.72;4941114;28;20858;-81
2021/10/09 01:45:15;;;;;;;20.57;12.87;;;;;;;5.48;100.00;97091.50;4942042;28;20043;-80
2021/10/09 01:47:41;;;;;;;19.80;14.03;;;;;;;5.46;100.00;97094.19;4974198;28;20023;-82
2021/10/09 01:50:10;;;;;;;21.13;13.57;;;;;;;5.40;100.00;97089.41;4957362;28;20748;-81
2021/10/09 01:52:45;;;;;;;20.47;13.37;;;;;;;5.33;100.00;97086.41;4947582;28;20105;-81
2021/10/09 01:55:13;;;;;;;27.47;13.47;;;;;;;5.31;100.00;97085.66;4943869;28;20190;-80
2021/10/09 01:57:39;;;;;;;21.13;13.33;;;;;;;5.31;100.00;97083.06;4938966;28;20066;-80
2021/10/09 02:00:06;;;;;;;20.30;13.87;;;;;;;5.36;100.00;97094.00;4956458;28;20407;-81
2021/10/09 02:02:50;;;;;;;23.87;14.33;;;;;;;5.31;100.00;97096.09;4962887;28;20106;-81
2021/10/09 02:05:27;;;;;;;20.90;13.57;;;;;;;5.31;100.00;97085.66;4942707;28;20505;-81
2021/10/09 02:07:53;;;;;;;20.97;13.80;;;;;;;5.31;100.00;97087.44;4963205;28;20049;-81
2021/10/09 02:10:19;;;;;;;22.10;12.60;;;;;;;5.27;100.00;97097.25;4962777;28;20133;-80
2021/10/09 02:12:49;;;;;;;19.63;12.60;;;;;;;5.24;100.00;97094.84;4969189;28;20031;-81
2021/10/09 02:15:19;;;;;;;22.50;13.43;;;;;;;5.26;100.00;97085.13;4944461;28;20034;-80
2021/10/09 02:25:45;;;;;;;23.80;13.40;;;;;;;5.25;100.00;97080.03;4959538;28;20089;-81
2021/10/09 02:28:23;;;;;;;19.80;13.67;;;;;;;5.23;100.00;97082.75;4932167;28;20038;-80
2021/10/09 02:30:52;;;;;;;25.03;15.87;;;;;;;5.23;100.00;97080.16;4957083;28;20065;-80
2021/10/09 02:33:22;;;;;;;20.10;13.23;;;;;;;5.26;100.00;97076.47;4946486;28;20026;-80
2021/10/09 02:35:48;;;;;;;21.40;13.30;;;;;;;5.29;100.00;97086.69;4946421;28;20035;-81
2021/10/09 02:38:15;;;;;;;26.60;14.23;;;;;;;5.23;100.00;97087.97;4962408;28;20037;-81
2021/10/09 02:40:49;;;;;;;25.57;15.07;;;;;;;5.21;100.00;97092.44;4979163;28;20122;-81
2021/10/09 02:43:15;;;;;;;20.50;13.07;;;;;;;5.20;100.00;97088.19;4967447;28;20034;-81
2021/10/09 02:45:41;;;;;;;21.63;14.40;;;;;;;5.13;100.00;97086.91;4940944;28;20536;-81
2021/10/09 02:48:11;;;;;;;26.30;14.73;;;;;;;5.16;100.00;97086.69;4937705;29;20654;-81
2021/10/09 02:50:45;;;;;;;23.23;14.37;;;;;;;5.22;100.00;97086.28;4957289;28;20897;-80
2021/10/09 02:53:15;;;;;;;23.07;12.50;;;;;;;5.22;100.00;97086.28;4962643;28;20508;-81
2021/10/09 02:55:41;;;;;;;19.70;13.50;;;;;;;5.19;100.00;97086.50;4952738;28;20027;-81
2021/10/09 02:58:11;;;;;;;22.17;13.60;;;;;;;5.23;100.00;97085.38;4969420;28;20110;-80
2021/10/09 03:00:37;;;;;;;20.17;13.43;;;;;;;5.21;100.00;97089.84;4953901;28;20129;-81
2021/10/09 03:03:03;;;;;;;22.57;13.40;;;;;;;5.22;100.00;97086.28;4941172;28;20042;-80
2021/10/09 03:05:34;;;;;;;22.53;13.47;;;;;;;5.19;100.00;97086.50;4945608;28;20585;-81
2021/10/09 03:08:07;;;;;;;22.53;13.60;;;;;;;5.15;100.00;97085.88;4962621;28;20814;-81
2021/10/09 03:10:36;;;;;;;20.97;14.37;;;;;;;5.15;100.00;97085.03;4959356;28;20039;-80
2021/10/09 03:13:03;;;;;;;23.07;14.57;;;;;;;5.08;100.00;97086.41;4954597;28;20034;-81
2021/10/09 03:15:28;;;;;;;21.00;13.97;;;;;;;5.00;100.00;97080.84;4945044;28;20047;-80
2021/10/09 03:17:55;;;;;;;22.83;14.07;;;;;;;4.96;100.00;97081.09;4951897;28;20034;-81
2021/10/09 03:20:22;;;;;;;23.13;14.77;;;;;;;4.93;100.00;97083.91;4972848;28;20045;-81
2021/10/09 03:22:52;;;;;;;22.13;14.87;;;;;;;4.92;100.00;97087.44;4948185;28;20027;-81
2021/10/09 03:25:18;;;;;;;25.37;15.90;;;;;;;4.95;100.00;97089.00;4978858;28;20034;-81
2021/10/09 03:27:48;;;;;;;30.13;15.73;;;;;;;4.97;100.00;97087.13;4946964;28;20037;-81
2021/10/09 03:30:19;;;;;;;22.07;14.60;;;;;;;4.89;100.00;97090.22;4953759;28;20159;-81
2021/10/09 03:32:45;;;;;;;24.33;15.53;;;;;;;4.88;100.00;97077.31;4956673;28;20038;-81
2021/10/09 03:35:10;;;;;;;21.80;15.20;;;;;;;4.89;100.00;97089.41;4963470;28;20033;-81
2021/10/09 03:37:39;;;;;;;25.77;14.87;;;;;;;4.80;100.00;97088.28;4941481;28;20027;-81
2021/10/09 03:40:10;;;;;;;22.83;14.97;;;;;;;4.79;100.00;97083.97;4968594;28;20385;-81
2021/10/09 03:42:41;;;;;;;24.43;15.13;;;;;;;4.82;100.00;97081.16;4979275;28;20066;-81
2021/10/09 03:45:22;;;;;;;27.90;16.30;;;;;;;4.83;100.00;97085.47;4937471;28;20126;-81
2021/10/09 03:53:05;;;;;;;23.83;15.80;;;;;;;4.87;100.00;97084.31;4958919;28;20041;-81
2021/10/09 03:55:35;;;;;;;25.93;17.10;;;;;;;4.81;100.00;97083.88;4951659;28;20034;-81
2021/10/09 03:58:42;;;;;;;23.73;16.67;;;;;;;4.82;100.00;97088.97;4933634;29;20481;-80
2021/10/09 04:01:17;;;;;;;26.43;16.27;;;;;;;4.90;100.00;97083.28;4943554;28;20034;-81
2021/10/09 04:03:43;;;;;;;26.03;16.53;;;;;;;4.83;100.00;97085.47;4961624;28;20066;-81
2021/10/09 04:06:09;;;;;;;28.23;17.20;;;;;;;4.85;100.00;97090.56;4938576;28;20485;-81
2021/10/09 04:08:35;;;;;;;24.97;17.47;;;;;;;4.85;100.00;97093.16;4956210;28;20065;-81
2021/10/09 04:11:03;;;;;;;28.73;17.30;;;;;;;4.78;100.00;97097.94;4950578;28;20301;-81
2021/10/09 04:13:30;;;;;;;27.03;17.80;;;;;;;4.77;100.00;97091.06;4956170;28;20038;-81
2021/10/09 04:15:56;;;;;;;28.50;17.63;;;;;;;4.82;100.00;97088.97;4949752;28;20038;-81
2021/10/09 04:18:22;;;;;;;29.87;17.93;;;;;;;4.91;100.00;97088.38;4950754;28;20043;-81
2021/10/09 04:20:49;;;;;;;30.00;18.07;;;;;;;4.88;100.00;97088.56;4963312;28;20389;-81
2021/10/09 04:23:15;;;;;;;28.50;18.53;;;;;;;4.88;100.00;97087.75;4946064;28;20036;-81
2021/10/09 04:25:45;;;;;;;28.97;18.53;;;;;;;4.87;100.00;97088.69;4953667;28;20050;-81
2021/10/09 04:28:13;;;;;;;25.77;17.50;;;;;;;4.86;100.00;97092.22;4934390;29;20050;-82
2021/10/09 04:30:39;;;;;;;27.93;18.77;;;;;;;4.87;100.00;97086.91;4950716;28;20576;-81
2021/10/09 04:33:04;;;;;;;29.30;16.97;;;;;;;4.88;100.00;97083.38;4944267;28;20074;-82
2021/10/09 04:35:37;;;;;;;31.53;19.57;;;;;;;4.89;100.00;97082.41;4969862;28;20030;-81
2021/10/09 04:38:08;;;;;;;25.87;17.27;;;;;;;4.95;100.00;97089.00;4955412;28;20512;-81
2021/10/09 04:40:34;;;;;;;26.83;17.83;;;;;;;4.90;100.00;97081.50;4978421;28;20497;-81
2021/10/09 04:43:01;;;;;;;29.53;18.13;;;;;;;4.87;100.00;97086.91;4970427;28;20117;-81
2021/10/09 04:45:32;;;;;;;28.60;18.57;;;;;;;4.87;100.00;97084.31;4974178;28;20042;-81
2021/10/09 04:48:03;;;;;;;18.13;12.73;;;;;;;4.80;100.00;97075.25;4939890;28;20062;-81
2021/10/09 04:50:29;;;;;;;28.37;18.73;;;;;;;4.80;100.00;97082.22;4960722;28;20462;-82
2021/10/09 04:52:57;;;;;;;33.00;16.67;;;;;;;4.77;100.00;97085.88;4962397;28;20019;-83
2021/10/09 04:55:27;;;;;;;32.10;19.13;;;;;;;4.75;100.00;97086.91;4961352;28;20030;-81
2021/10/09 04:57:54;;;;;;;28.70;17.40;;;;;;;4.77;100.00;97085.88;4964938;28;20691;-81
2021/10/09 05:00:22;;;;;;;30.13;19.60;;;;;;;4.74;100.00;97083.47;4948189;28;20030;-82
2021/10/09 05:02:48;;;;;;;27.77;18.90;;;;;;;4.82;100.00;97082.94;4937820;28;20031;-81
2021/10/09 05:05:14;;;;;;;27.60;17.50;;;;;;;4.80;100.00;97077.84;4964269;28;20023;-81
2021/10/09 05:07:43;;;;;;;31.17;19.13;;;;;;;4.81;100.00;97079.50;4940398;28;20370;-81
2021/10/09 05:10:10;;;;;;;27.93;17.77;;;;;;;4.77;100.00;97083.25;4953621;28;20033;-82
2021/10/09 05:12:36;;;;;;;25.77;17.73;;;;;;;4.68;100.00;97084.69;4959682;28;20069;-81
2021/10/09 05:15:06;;;;;;;30.57;18.97;;;;;;;4.69;100.00;97083.78;4961521;28;20483;-82
2021/10/09 05:17:32;;;;;;;28.60;18.13;;;;;;;4.72;100.00;97088.75;4956515;28;20058;-81
2021/10/09 05:20:00;;;;;;;31.67;17.97;;;;;;;4.68;100.00;97089.06;4959637;28;20030;-81
2021/10/09 05:22:28;;;;;;;31.63;19.03;;;;;;;4.72;100.00;97082.72;4959496;28;20037;-81
2021/10/09 05:24:55;;;;;;;28.83;18.00;;;;;;;4.76;100.00;97085.94;4952513;28;20035;-81
2021/10/09 05:27:26;;;;;;;27.23;18.50;;;;;;;4.72;100.00;97080.94;4950962;28;20050;-81
2021/10/09 05:29:52;;;;;;;27.30;19.60;;;;;;;4.70;100.00;97082.84;4958687;28;20027;-81
2021/10/09 05:32:27;;;;;;;31.27;18.83;;;;;;;4.73;100.00;97090.44;4958335;28;20026;-81
2021/10/09 05:34:55;;;;;;;27.10;18.23;;;;;;;4.74;100.00;97096.50;4948791;28;20058;-81
2021/10/09 05:41:13;;;;;;;31.47;18.23;;;;;;;4.77;100.00;97103.28;4968011;28;20046;-81
2021/10/09 05:43:46;;;;;;;28.27;19.00;;;;;;;4.80;100.00;97098.69;4958032;28;20082;-81
2021/10/09 05:46:12;;;;;;;32.93;19.77;;;;;;;4.88;100.00;97106.81;4975684;28;20030;-81
2021/10/09 05:48:42;;;;;;;31.50;18.83;;;;;;;4.99;100.00;97100.88;4942216;28;20069;-81
2021/10/09 05:51:41;;;;;;;31.87;20.00;;;;;;;5.15;100.00;97111.94;4952518;28;20583;-81
2021/10/09 05:56:50;;;;;;;30.43;20.13;;;;;;;5.36;100.00;97109.63;4957027;28;20485;-81
2021/10/09 06:32:40;;;;;;;26.67;15.47;;;;;;;7.24;100.00;97123.94;4952289;28;20072;-80
2021/10/09 06:42:17;;;;;;;23.93;15.57;;;;;;;7.67;100.00;97118.00;4964920;28;20480;-80
2021/10/09 06:43:45;;;;;;;25.00;16.30;;;;;;;7.71;100.00;97126.44;4957517;28;20129;-80
2021/10/09 06:46:40;;;;;;;25.47;15.67;;;;;;;7.84;100.00;97126.34;4957321;28;20035;-81
2021/10/09 07:00:14;;;;;;;25.93;15.30;;;;;;;8.87;95.17;97129.44;4956853;28;20038;-80
2021/10/09 07:02:42;;;;;;;24.03;15.73;;;;;;;9.16;95.68;97132.25;4954140;28;20030;-80
2021/10/09 07:05:11;;;;;;;25.87;15.23;;;;;;;9.27;93.42;97136.59;4955094;28;20056;-81
2021/10/09 07:07:52;;;;;;;28.63;14.57;;;;;;;9.63;91.93;97135.28;4968303;28;20046;-80
2021/10/09 07:10:32;;;;;;;27.80;15.97;;;;;;;9.67;90.85;97129.63;4949534;28;20122;-81
2021/10/09 07:12:57;;;;;;;28.53;16.50;;;;;;;9.56;92.61;97136.78;4954235;28;20128;-81
2021/10/09 07:15:23;;;;;;;21.90;15.60;;;;;;;9.56;92.09;97140.22;4961904;28;20057;-81
2021/10/09 07:17:49;;;;;;;23.73;14.67;;;;;;;9.93;90.20;97144.13;4957774;28;20039;-81
2021/10/09 07:20:22;;;;;;;24.63;15.43;;;;;;;9.45;91.85;97142.91;4956368;28;20035;-81
2021/10/09 07:22:48;;;;;;;;;;;;;;;10.09;91.10;97147.06;4964902;28;20041;-80
2021/10/09 07:25:16;;;;;;;25.37;15.70;;;;;;;10.35;88.37;97145.63;4963714;28;20450;-80
2021/10/09 07:27:43;;;;;;;22.10;14.43;;;;;;;10.62;87.47;97159.94;4944833;28;20035;-80
2021/10/09 07:30:12;;;;;;;23.10;14.27;;;;;;;10.46;87.92;97154.38;4939776;28;20035;-80
2021/10/09 07:32:38;;;;;;;23.10;15.50;;;;;;;10.77;85.64;97150.69;4974393;28;20022;-80
2021/10/09 07:35:05;;;;;;;21.60;15.13;;;;;;;10.88;85.66;97144.44;4964754;28;20629;-80
2021/10/09 07:37:31;;;;;;;26.00;14.80;;;;;;;11.01;85.68;97155.53;4959574;28;20142;-80
2021/10/09 07:39:57;;;;;;;22.27;14.80;;;;;;;10.78;86.02;97160.22;4974258;28;20095;-80
2021/10/09 07:42:23;;;;;;;23.43;15.07;;;;;;;10.68;85.45;97161.19;4953259;28;20421;-80
2021/10/09 07:44:50;;;;;;;26.60;15.77;;;;;;;11.57;83.05;97164.47;4974590;28;20034;-80
2021/10/09 07:47:20;;;;;;;24.60;15.97;;;;;;;10.93;84.83;97157.19;4957055;28;20038;-82
2021/10/09 07:49:51;;;;;;;24.17;15.43;;;;;;;11.08;83.90;97156.63;4966679;28;20039;-81
2021/10/09 07:52:23;;;;;;;20.93;14.73;;;;;;;9.94;88.32;97161.53;4955346;28;20061;-80
2021/10/09 07:54:48;;;;;;;27.97;17.87;;;;;;;11.04;85.22;97151.78;4971965;28;20109;-80
2021/10/09 07:57:20;;;;;;;23.23;15.30;;;;;;;10.51;85.52;97167.97;4957491;28;20113;-81
2021/10/09 07:59:47;;;;;;;28.60;18.20;;;;;;;11.02;84.21;97162.44;4951855;28;20564;-80
2021/10/09 08:02:14;;;;;;;24.77;16.00;;;;;;;10.88;86.39;97162.88;4940768;28;20031;-80
2021/10/09 08:04:39;;;;;;;24.93;16.53;;;;;;;10.73;86.40;97157.19;4970061;28;20556;-80
2021/10/09 08:07:13;;;;;;;30.20;16.50;;;;;;;10.43;87.68;97168.66;4936878;28;20027;-81
2021/10/09 08:09:39;;;;;;;30.47;16.10;;;;;;;11.15;85.34;97162.16;4955464;28;20046;-80
2021/10/09 08:12:05;;;;;;;26.17;17.53;;;;;;;10.00;87.87;97174.16;4961396;28;20030;-80
2021/10/09 08:14:35;;;;;;;24.90;17.23;;;;;;;10.56;86.31;97171.00;4977226;28;20026;-79
2021/10/09 08:17:00;;;;;;;24.77;17.33;;;;;;;10.65;87.44;97167.56;4975418;28;20027;-80
2021/10/09 08:19:26;;;;;;;25.77;17.33;;;;;;;10.84;84.50;97174.66;4962370;28;20456;-80
2021/10/09 08:21:53;;;;;;;24.00;17.97;;;;;;;10.79;85.42;97171.59;4932458;28;20065;-80
2021/10/09 08:27:16;;;;;;;30.93;17.93;;;;;;;10.31;88.05;97188.94;4952958;28;20035;-80
2021/10/09 08:35:32;;;;;;;23.87;17.53;;;;;;;11.17;85.58;97180.47;4958680;28;20042;-83
2021/10/09 08:40:52;;;;;;;26.13;16.80;;;;;;;12.06;80.39;97175.69;4977575;28;20109;-82
2021/10/09 08:43:17;;;;;;;27.67;17.70;;;;;;;11.34;81.47;97179.75;4986831;28;20030;-82
2021/10/09 08:45:45;;;;;;;26.30;17.07;;;;;;;11.65;78.40;97182.19;4962339;28;20366;-83
2021/10/09 08:48:12;;;;;;;26.73;17.57;;;;;;;11.06;81.36;97194.59;4953624;28;20050;-76
2021/10/09 08:50:38;;;;;;;23.93;16.50;;;;;;;11.12;82.76;97177.41;4945792;28;20023;-83
2021/10/09 08:53:08;;;;;;;21.40;16.57;;;;;;;11.26;80.67;97179.59;4969971;28;20045;-83
2021/10/09 08:55:44;;;;;;;26.90;17.73;;;;;;;11.62;79.96;97191.19;4960018;28;20780;-83
2021/10/09 08:58:48;;;;;;;24.90;17.23;;;;;;;11.99;78.36;97179.88;4938972;28;20039;-83
2021/10/09 09:01:25;;;;;;;22.00;16.27;;;;;;;12.20;76.34;97174.38;4880952;29;20744;-76
2021/10/09 09:04:13;;;;;;;23.43;15.40;;;;;;;12.16;78.68;97184.38;4909361;29;20044;-77
2021/10/09 09:37:28;;;;;;;26.47;17.43;;;;;;;13.28;70.59;97176.19;4949649;28;20023;-76
2021/10/09 09:40:02;;;;;;;32.10;17.30;;;;;;;12.63;73.68;97180.81;4954693;28;20058;-76
2021/10/09 09:42:27;;;;;;;22.88;17.58;;;;;;;13.24;71.06;97174.81;4966186;28;20035;-77
2021/10/09 09:45:00;;;;;;;22.27;15.80;;;;;;;12.69;72.50;97185.50;4945880;28;20476;-76
2021/10/09 09:47:34;;;;;;;32.17;17.00;;;;;;;12.56;74.44;97179.75;4940319;28;20039;-77
2021/10/09 09:50:02;;;;;;;24.57;16.63;;;;;;;12.83;73.68;97174.41;4939827;28;20034;-76
2021/10/09 09:52:29;;;;;;;25.00;16.87;;;;;;;13.85;69.25;97171.28;4954659;28;20026;-77
2021/10/09 09:54:56;;;;;;;25.03;16.77;;;;;;;14.49;68.30;97165.63;4971798;28;20074;-76
2021/10/09 09:57:25;;;;;;;25.37;16.50;;;;;;;13.21;71.82;97169.78;4940308;28;20030;-76
2021/10/09 09:59:56;;;;;;;24.20;16.20;;;;;;;12.60;71.63;97187.22;4955009;28;20057;-77
2021/10/09 10:02:30;;;;;;;24.00;16.20;;;;;;;12.73;71.56;97176.28;4950627;28;20043;-76
2021/10/09 10:05:02;;;;;;;23.87;15.30;;;;;;;13.07;70.95;97179.09;4971493;28;20042;-77
2021/10/09 10:07:29;;;;;;;26.93;16.57;;;;;;;13.13;71.58;97172.38;4950399;28;20046;-77
2021/10/09 10:09:55;;;;;;;21.63;16.60;;;;;;;13.26;71.19;97174.66;4943113;28;20049;-77
2021/10/09 10:12:24;;;;;;;23.77;16.87;;;;;;;13.96;69.93;97169.34;4960202;28;20038;-76
2021/10/09 10:14:51;;;;;;;25.63;16.27;;;;;;;13.02;71.88;97178.72;4958313;28;20045;-76
2021/10/09 10:17:49;;;;;;;26.73;16.63;;;;;;;13.31;70.98;97175.88;4959123;28;20045;-77
2021/10/09 10:20:20;;;;;;;20.57;15.40;;;;;;;13.54;68.92;97178.84;4959518;28;20762;-76
2021/10/09 10:22:49;;;;;;;24.10;16.43;;;;;;;14.83;66.57;97169.03;4935141;28;20034;-76
2021/10/09 10:25:24;;;;;;;26.10;15.23;;;;;;;14.49;65.94;97182.31;4953020;28;20755;-76
2021/10/09 10:28:03;;;;;;;21.83;15.23;;;;;;;14.45;65.30;97180.13;4926340;29;20047;-78
2021/10/09 10:30:36;;;;;;;26.80;15.33;;;;;;;13.28;68.26;97185.91;4937046;28;20045;-77
2021/10/09 10:33:05;;;;;;;24.80;15.63;;;;;;;13.51;68.68;97176.50;4950375;28;20047;-78
2021/10/09 10:35:36;;;;;;;23.70;16.00;;;;;;;14.46;67.32;97165.94;4952938;28;20098;-77
2021/10/09 10:38:21;;;;;;;25.00;15.33;;;;;;;14.66;65.63;97171.81;4957207;28;20042;-77
2021/10/09 10:41:00;;;;;;;24.60;15.23;;;;;;;14.80;64.80;97169.34;4963115;28;20038;-77
2021/10/09 10:46:46;;;;;;;20.50;14.77;;;;;;;15.09;63.82;97168.06;4958984;28;20041;-78
2021/10/09 10:49:29;;;;;;;23.83;15.27;;;;;;;16.22;62.92;97165.44;4978726;28;20046;-78
2021/10/09 10:56:59;;;;;;;18.88;14.10;;;;;;;16.40;60.64;97171.34;4955854;28;20103;-78
2021/10/09 10:59:55;;;;;;;22.52;15.98;;;;;;;15.82;61.18;97169.84;4967868;28;20496;-77
2021/10/09 11:02:26;;;;;;;21.75;14.70;;;;;;;16.68;57.56;97169.03;4972894;28;20046;-77
2021/10/09 11:05:06;;;;;;;25.30;15.68;;;;;;;16.02;62.57;97172.97;4953485;28;20039;-77
2021/10/09 11:07:38;;;;;;;21.45;14.07;;;;;;;17.04;58.00;97162.38;4945334;28;20081;-77
2021/10/09 11:10:13;;;;;;;23.02;15.57;;;;;;;15.81;61.08;97172.69;4955741;28;20511;-78
2021/10/09 11:12:40;;;;;;;23.70;14.23;;;;;;;15.76;59.92;97179.34;4955335;28;20049;-78
2021/10/09 11:15:25;;;;;;;21.02;14.27;;;;;;;16.08;60.26;97169.63;4941927;29;20091;-77
2021/10/09 11:18:04;;;;;;;24.73;15.55;;;;;;;15.08;62.61;97161.94;4964894;28;20035;-77
2021/10/09 11:20:39;;;;;;;23.42;15.07;;;;;;;15.32;62.74;97163.78;4951923;28;20153;-77
2021/10/09 11:23:10;;;;;;;21.83;13.70;;;;;;;16.07;60.42;97160.03;4954564;28;20186;-77
2021/10/09 11:25:44;;;;;;;21.75;12.30;;;;;;;16.79;57.27;97161.69;4959532;28;20042;-77
2021/10/09 11:28:28;;;;;;;19.65;13.05;;;;;;;15.45;59.12;97171.19;4934800;28;20096;-77
2021/10/09 11:30:55;;;;;;;16.75;12.20;;;;;;;15.27;59.67;97159.97;4945685;28;20062;-77
2021/10/09 11:33:26;;;;;;;18.90;12.15;;;;;;;15.48;58.96;97162.09;4954054;28;20029;-77
2021/10/09 11:35:57;;;;;;;17.23;13.00;;;;;;;16.16;57.99;97153.69;4945655;28;20042;-77
2021/10/09 11:38:27;;;;;;;19.38;12.18;;;;;;;16.23;57.15;97152.00;4936093;28;20042;-77
2021/10/09 11:40:59;;;;;;;24.30;16.50;;;;;;;17.37;56.96;97146.97;4942008;28;20043;-77
2021/10/09 11:47:07;;;;;;;17.83;12.90;;;;;;;16.77;56.67;97153.94;4950637;28;20125;-78
2021/10/09 11:55:32;;;;;;;16.48;10.13;;;;;;;17.31;53.50;97142.41;4966616;28;20045;-77
2021/10/09 11:58:02;;;;;;;18.88;10.57;;;;;;;17.01;53.32;97139.66;4976939;28;20096;-78
2021/10/09 12:00:28;;;;;;;17.20;9.98;;;;;;;18.07;51.24;97133.31;4958817;28;20035;-77
2021/10/09 12:03:22;;;;;;;13.88;10.10;;;;;;;18.28;50.64;97129.94;4976576;28;20034;-78
2021/10/09 12:06:10;;;;;;;14.98;9.00;;;;;;;18.66;48.84;97128.94;4941119;28;20100;-80
2021/10/09 12:08:56;;;;;;;14.63;9.20;;;;;;;18.23;49.42;97126.16;4957835;28;20049;-77
2021/10/09 12:11:44;;;;;;;13.95;9.30;;;;;;;17.03;52.52;97124.31;4950623;28;20038;-78
2021/10/09 12:14:12;;;;;;;13.43;9.55;;;;;;;16.81;52.61;97125.19;4941897;28;20045;-77
2021/10/09 12:16:47;;;;;;;14.73;8.60;;;;;;;17.80;50.75;97118.00;4939367;28;20106;-77
2021/10/09 12:19:24;;;;;;;14.13;8.13;;;;;;;17.12;51.91;97125.94;4949596;28;20833;-78
2021/10/09 12:21:53;;;;;;;12.48;7.70;;;;;;;17.52;48.86;97118.59;4951645;28;20038;-77
2021/10/09 12:24:25;;;;;;;11.45;7.82;;;;;;;17.17;50.67;97112.94;4933943;28;20122;-77
2021/10/09 12:27:13;;;;;;;11.07;8.10;;;;;;;16.30;51.39;97119.44;4952610;28;20038;-78
2021/10/09 12:30:03;;;;;;;14.02;7.97;;;;;;;16.89;50.96;97109.16;4957649;28;20176;-77
2021/10/09 12:32:39;;;;;;;12.05;7.57;;;;;;;17.46;50.15;97111.34;4933867;28;20033;-77
2021/10/09 12:35:18;;;;;;;14.27;7.45;;;;;;;17.01;51.28;97109.59;4938833;28;20092;-78
2021/10/09 12:37:57;;;;;;;13.43;8.48;;;;;;;17.02;50.38;97108.56;4935368;28;20113;-77
2021/10/09 12:40:28;;;;;;;15.85;7.60;;;;;;;17.16;50.11;97113.94;4948370;28;20441;-77
2021/10/09 12:43:00;;;;;;;12.05;8.23;;;;;;;17.32;48.91;97102.34;4938849;28;20058;-77
2021/10/09 12:45:29;;;;;;;14.90;7.32;;;;;;;17.10;48.46;97100.53;4957323;28;20065;-78
2021/10/09 12:48:03;;;;;;;12.35;6.93;;;;;;;16.95;49.82;97108.47;4940750;28;20022;-77
2021/10/09 12:50:32;;;;;;;19.15;7.93;;;;;;;16.59;49.52;97106.34;4943453;28;20039;-77
2021/10/09 12:52:59;;;;;;;13.90;6.78;;;;;;;16.73;49.83;97102.94;4943817;28;20022;-77
2021/10/09 12:55:27;;;;;;;13.85;6.95;;;;;;;16.99;48.63;97107.09;4953683;28;20027;-77
2021/10/09 12:57:59;;;;;;;13.10;6.60;;;;;;;16.66;49.19;97104.63;4951320;28;20882;-77
2021/10/09 13:00:26;;;;;;;9.57;5.50;;;;;;;17.11;48.43;97096.88;4956114;28;20082;-77
2021/10/09 13:02:58;;;;;;;11.65;6.60;;;;;;;17.55;46.81;97091.66;4939804;28;20054;-77
2021/10/09 13:05:27;;;;;;;14.45;7.15;;;;;;;17.66;47.76;97101.00;4973140;28;20030;-77
2021/10/09 13:07:53;;;;;;;9.00;5.93;;;;;;;17.31;47.60;97089.22;4943693;28;20118;-77
2021/10/09 13:10:21;;;;;;;12.48;6.15;;;;;;;17.60;46.09;97083.09;4939199;28;20039;-77
2021/10/09 13:12:56;;;;;;;10.75;6.05;;;;;;;17.70;46.35;97085.50;4962126;28;20045;-77
2021/10/09 13:15:22;;;;;;;9.52;5.97;;;;;;;17.66;47.18;97080.53;4952931;28;20034;-77
2021/10/09 13:17:49;;;;;;;10.65;5.88;;;;;;;17.35;46.75;97083.38;4959826;28;20493;-77
2021/10/09 13:20:18;;;;;;;11.73;6.10;;;;;;;16.67;47.32;97094.84;4959949;28;20046;-77
2021/10/09 13:22:45;;;;;;;12.20;6.38;;;;;;;16.46;48.05;97084.84;4950485;28;20027;-77
2021/10/09 13:25:11;;;;;;;11.30;5.72;;;;;;;16.98;47.63;97086.84;4942291;28;20031;-77
2021/10/09 13:27:37;;;;;;;12.38;5.28;;;;;;;17.13;46.74;97086.88;4973671;28;20034;-77
2021/10/09 13:30:04;;;;;;;9.85;5.43;;;;;;;17.07;47.14;97080.47;4940881;28;20405;-78
2021/10/09 13:32:30;;;;;;;9.27;4.75;;;;;;;17.00;47.06;97074.22;4958061;28;20029;-77
2021/10/09 13:34:56;;;;;;;9.02;5.25;;;;;;;17.04;47.13;97080.00;4955999;28;20034;-77
2021/10/09 13:37:25;;;;;;;9.10;4.80;;;;;;;17.19;46.32;97078.19;4959634;28;20949;-77
2021/10/09 13:39:53;;;;;;;9.77;5.18;;;;;;;16.98;47.25;97068.25;4940694;28;20034;-77
2021/10/09 13:42:20;;;;;;;11.95;5.50;;;;;;;17.10;46.98;97076.59;4945948;28;20029;-77
2021/10/09 13:44:45;;;;;;;10.00;5.65;;;;;;;17.04;45.84;97078.16;4941524;28;20862;-77